sensor_id;sensor_type;location;lat;lon;timestamp;temperature;humidity
17859;DHT22;35426;30.698;104.050;2023-08-06T00:00:13;29.40;99.90
17859;DHT22;35426;30.698;104.050;2023-08-06T00:02:46;29.20;99.90
17859;DHT22;35426;30.698;104.050;2023-08-06T00:05:19;29.10;99.90
17859;DHT22;35426;30.698;104.050;2023-08-06T00:07:53;29.00;99.90
17859;DHT22;35426;30.698;104.050;2023-08-06T00:10:28;28.70;99.90
17859;DHT22;35426;30.698;104.050;2023-08-06T00:13:01;28.70;99.90
17859;DHT22;35426;30.698;104.050;2023-08-06T00:15:34;28.70;99.90
17859;DHT22;35426;30.698;104.050;2023-08-06T00:18:08;28.50;99.90
17859;DHT22;35426;30.698;104.050;2023-08-06T00:20:42;28.50;99.90
17859;DHT22;35426;30.698;104.050;2023-08-06T00:23:15;28.50;99.90
17859;DHT22;35426;30.698;104.050;2023-08-06T00:25:50;28.60;99.90
17859;DHT22;35426;30.698;104.050;2023-08-06T00:28:29;28.70;99.90
17859;DHT22;35426;30.698;104.050;2023-08-06T00:31:02;28.70;99.90
17859;DHT22;35426;30.698;104.050;2023-08-06T00:33:36;28.70;99.90
17859;DHT22;35426;30.698;104.050;2023-08-06T00:36:09;28.80;99.90
17859;DHT22;35426;30.698;104.050;2023-08-06T00:38:42;28.90;99.90
17859;DHT22;35426;30.698;104.050;2023-08-06T00:41:18;28.80;99.90
17859;DHT22;35426;30.698;104.050;2023-08-06T00:43:53;28.80;99.90
17859;DHT22;35426;30.698;104.050;2023-08-06T00:46:28;28.70;99.90
17859;DHT22;35426;30.698;104.050;2023-08-06T00:49:02;28.70;99.90
17859;DHT22;35426;30.698;104.050;2023-08-06T00:51:35;28.90;99.90
17859;DHT22;35426;30.698;104.050;2023-08-06T00:54:08;28.90;99.90
17859;DHT22;35426;30.698;104.050;2023-08-06T00:56:44;29.00;99.90
17859;DHT22;35426;30.698;104.050;2023-08-06T00:59:18;29.10;99.90
17859;DHT22;35426;30.698;104.050;2023-08-06T01:01:53;29.20;99.90
17859;DHT22;35426;30.698;104.050;2023-08-06T01:04:26;29.20;99.90
17859;DHT22;35426;30.698;104.050;2023-08-06T01:07:06;29.50;99.90
17859;DHT22;35426;30.698;104.050;2023-08-06T01:09:49;30.00;99.90
17859;DHT22;35426;30.698;104.050;2023-08-06T01:12:32;30.80;99.90
17859;DHT22;35426;30.698;104.050;2023-08-06T01:15:11;30.80;99.90
17859;DHT22;35426;30.698;104.050;2023-08-06T01:17:47;30.90;99.90
17859;DHT22;35426;30.698;104.050;2023-08-06T01:20:21;31.10;99.90
17859;DHT22;35426;30.698;104.050;2023-08-06T01:22:56;31.20;99.90
17859;DHT22;35426;30.698;104.050;2023-08-06T01:25:35;31.30;99.90
17859;DHT22;35426;30.698;104.050;2023-08-06T01:28:18;31.60;99.90
17859;DHT22;35426;30.698;104.050;2023-08-06T01:30:54;31.60;99.90
17859;DHT22;35426;30.698;104.050;2023-08-06T01:33:29;31.90;99.90
17859;DHT22;35426;30.698;104.050;2023-08-06T01:36:04;33.10;99.90
17859;DHT22;35426;30.698;104.050;2023-08-06T01:38:40;33.50;99.90
17859;DHT22;35426;30.698;104.050;2023-08-06T01:41:15;34.10;99.90
17859;DHT22;35426;30.698;104.050;2023-08-06T01:43:49;34.30;99.90
17859;DHT22;35426;30.698;104.050;2023-08-06T01:46:23;34.80;99.90
17859;DHT22;35426;30.698;104.050;2023-08-06T01:49:01;34.30;99.90
17859;DHT22;35426;30.698;104.050;2023-08-06T01:51:35;33.80;99.90
17859;DHT22;35426;30.698;104.050;2023-08-06T01:54:10;33.80;99.90
17859;DHT22;35426;30.698;104.050;2023-08-06T01:56:44;33.70;99.90
17859;DHT22;35426;30.698;104.050;2023-08-06T01:59:17;33.60;99.90
17859;DHT22;35426;30.698;104.050;2023-08-06T02:01:51;32.60;99.90
17859;DHT22;35426;30.698;104.050;2023-08-06T02:04:29;32.80;99.90
17859;DHT22;35426;30.698;104.050;2023-08-06T02:07:03;33.20;99.90
17859;DHT22;35426;30.698;104.050;2023-08-06T02:09:38;33.40;99.90
17859;DHT22;35426;30.698;104.050;2023-08-06T02:12:12;34.30;99.90
17859;DHT22;35426;30.698;104.050;2023-08-06T02:14:45;34.40;99.90
17859;DHT22;35426;30.698;104.050;2023-08-06T02:17:19;34.90;99.90
17859;DHT22;35426;30.698;104.050;2023-08-06T02:19:53;35.50;99.90
17859;DHT22;35426;30.698;104.050;2023-08-06T02:22:26;35.40;99.90
17859;DHT22;35426;30.698;104.050;2023-08-06T02:25:01;36.00;99.90
17859;DHT22;35426;30.698;104.050;2023-08-06T02:27:35;36.00;99.90
17859;DHT22;35426;30.698;104.050;2023-08-06T02:30:10;35.70;99.90
17859;DHT22;35426;30.698;104.050;2023-08-06T02:32:44;35.70;99.90
17859;DHT22;35426;30.698;104.050;2023-08-06T02:35:17;35.90;99.90
17859;DHT22;35426;30.698;104.050;2023-08-06T02:37:51;35.80;99.90
17859;DHT22;35426;30.698;104.050;2023-08-06T02:40:26;36.40;99.90
17859;DHT22;35426;30.698;104.050;2023-08-06T02:42:59;36.50;99.90
17859;DHT22;35426;30.698;104.050;2023-08-06T02:45:33;36.10;99.90
17859;DHT22;35426;30.698;104.050;2023-08-06T02:48:06;36.30;99.90
17859;DHT22;35426;30.698;104.050;2023-08-06T02:50:40;36.30;99.90
17859;DHT22;35426;30.698;104.050;2023-08-06T02:53:13;35.50;99.90
17859;DHT22;35426;30.698;104.050;2023-08-06T02:55:50;35.70;99.90
17859;DHT22;35426;30.698;104.050;2023-08-06T02:58:33;36.40;99.90
17859;DHT22;35426;30.698;104.050;2023-08-06T03:01:30;36.20;99.90
17859;DHT22;35426;30.698;104.050;2023-08-06T03:04:11;35.80;99.90
17859;DHT22;35426;30.698;104.050;2023-08-06T03:06:46;35.10;99.90
17859;DHT22;35426;30.698;104.050;2023-08-06T03:09:20;35.30;99.90
17859;DHT22;35426;30.698;104.050;2023-08-06T03:11:56;34.70;99.90
17859;DHT22;35426;30.698;104.050;2023-08-06T03:14:29;34.30;99.90
17859;DHT22;35426;30.698;104.050;2023-08-06T03:17:06;34.50;99.90
17859;DHT22;35426;30.698;104.050;2023-08-06T03:19:39;34.40;99.90
17859;DHT22;35426;30.698;104.050;2023-08-06T03:22:14;34.10;99.90
17859;DHT22;35426;30.698;104.050;2023-08-06T03:24:50;33.60;99.90
17859;DHT22;35426;30.698;104.050;2023-08-06T03:27:29;32.90;99.90
17859;DHT22;35426;30.698;104.050;2023-08-06T03:30:03;33.00;99.90
17859;DHT22;35426;30.698;104.050;2023-08-06T03:32:38;33.20;99.90
17859;DHT22;35426;30.698;104.050;2023-08-06T03:35:13;33.30;99.90
17859;DHT22;35426;30.698;104.050;2023-08-06T03:37:47;33.60;99.90
17859;DHT22;35426;30.698;104.050;2023-08-06T03:40:21;33.60;99.90
17859;DHT22;35426;30.698;104.050;2023-08-06T03:42:58;33.90;99.90
17859;DHT22;35426;30.698;104.050;2023-08-06T03:45:31;33.50;99.90
17859;DHT22;35426;30.698;104.050;2023-08-06T03:48:06;33.90;99.90
17859;DHT22;35426;30.698;104.050;2023-08-06T03:50:40;34.50;99.90
17859;DHT22;35426;30.698;104.050;2023-08-06T03:53:16;34.40;99.90
17859;DHT22;35426;30.698;104.050;2023-08-06T03:55:49;34.30;99.90
17859;DHT22;35426;30.698;104.050;2023-08-06T03:58:26;34.80;99.90
17859;DHT22;35426;30.698;104.050;2023-08-06T04:01:00;34.80;99.90
17859;DHT22;35426;30.698;104.050;2023-08-06T04:03:42;35.10;99.90
17859;DHT22;35426;30.698;104.050;2023-08-06T04:06:16;34.80;99.90
17859;DHT22;35426;30.698;104.050;2023-08-06T04:08:49;35.20;99.90
17859;DHT22;35426;30.698;104.050;2023-08-06T04:11:23;35.90;99.90
17859;DHT22;35426;30.698;104.050;2023-08-06T04:13:58;36.40;99.90
17859;DHT22;35426;30.698;104.050;2023-08-06T04:16:33;36.00;99.90
17859;DHT22;35426;30.698;104.050;2023-08-06T04:19:10;36.00;99.90
17859;DHT22;35426;30.698;104.050;2023-08-06T04:21:44;35.50;99.90
17859;DHT22;35426;30.698;104.050;2023-08-06T04:24:17;35.10;99.90
17859;DHT22;35426;30.698;104.050;2023-08-06T04:26:54;35.40;99.90
17859;DHT22;35426;30.698;104.050;2023-08-06T04:29:30;35.30;99.90
17859;DHT22;35426;30.698;104.050;2023-08-06T04:32:05;35.50;99.90
17859;DHT22;35426;30.698;104.050;2023-08-06T04:34:45;35.50;99.90
17859;DHT22;35426;30.698;104.050;2023-08-06T04:37:18;35.60;99.90
17859;DHT22;35426;30.698;104.050;2023-08-06T04:39:53;35.40;99.90
17859;DHT22;35426;30.698;104.050;2023-08-06T04:42:27;35.30;99.90
17859;DHT22;35426;30.698;104.050;2023-08-06T04:45:05;35.30;99.90
17859;DHT22;35426;30.698;104.050;2023-08-06T04:47:38;35.50;99.90
17859;DHT22;35426;30.698;104.050;2023-08-06T04:50:12;35.70;99.90
17859;DHT22;35426;30.698;104.050;2023-08-06T04:52:45;35.40;99.90
17859;DHT22;35426;30.698;104.050;2023-08-06T04:55:18;35.00;99.90
17859;DHT22;35426;30.698;104.050;2023-08-06T04:57:52;34.90;99.90
17859;DHT22;35426;30.698;104.050;2023-08-06T05:00:28;35.20;99.90
17859;DHT22;35426;30.698;104.050;2023-08-06T05:03:01;35.10;99.90
17859;DHT22;35426;30.698;104.050;2023-08-06T05:05:35;35.30;99.90
17859;DHT22;35426;30.698;104.050;2023-08-06T05:08:15;35.30;99.90
17859;DHT22;35426;30.698;104.050;2023-08-06T05:10:49;35.10;99.90
17859;DHT22;35426;30.698;104.050;2023-08-06T05:13:23;35.60;99.90
17859;DHT22;35426;30.698;104.050;2023-08-06T05:16:00;35.60;99.90
17859;DHT22;35426;30.698;104.050;2023-08-06T05:18:34;35.50;99.90
17859;DHT22;35426;30.698;104.050;2023-08-06T05:21:08;35.30;99.90
17859;DHT22;35426;30.698;104.050;2023-08-06T05:23:42;35.00;99.90
17859;DHT22;35426;30.698;104.050;2023-08-06T05:26:16;35.40;99.90
17859;DHT22;35426;30.698;104.050;2023-08-06T05:28:51;35.00;99.90
17859;DHT22;35426;30.698;104.050;2023-08-06T05:31:35;34.50;99.90
17859;DHT22;35426;30.698;104.050;2023-08-06T05:34:09;34.30;99.90
17859;DHT22;35426;30.698;104.050;2023-08-06T05:36:42;34.10;99.90
17859;DHT22;35426;30.698;104.050;2023-08-06T05:39:15;33.90;99.90
17859;DHT22;35426;30.698;104.050;2023-08-06T05:41:49;34.30;99.90
17859;DHT22;35426;30.698;104.050;2023-08-06T05:44:25;34.40;99.90
17859;DHT22;35426;30.698;104.050;2023-08-06T05:47:01;34.60;99.90
17859;DHT22;35426;30.698;104.050;2023-08-06T05:49:34;34.60;99.90
17859;DHT22;35426;30.698;104.050;2023-08-06T05:52:08;34.80;99.90
17859;DHT22;35426;30.698;104.050;2023-08-06T05:54:41;34.90;99.90
17859;DHT22;35426;30.698;104.050;2023-08-06T05:57:14;35.10;99.90
17859;DHT22;35426;30.698;104.050;2023-08-06T05:59:48;35.50;99.90
17859;DHT22;35426;30.698;104.050;2023-08-06T06:02:25;35.50;99.90
17859;DHT22;35426;30.698;104.050;2023-08-06T06:04:58;35.40;99.90
17859;DHT22;35426;30.698;104.050;2023-08-06T06:07:32;35.60;99.90
17859;DHT22;35426;30.698;104.050;2023-08-06T06:10:09;35.60;99.90
17859;DHT22;35426;30.698;104.050;2023-08-06T06:12:46;35.70;99.90
17859;DHT22;35426;30.698;104.050;2023-08-06T06:15:20;35.90;99.90
17859;DHT22;35426;30.698;104.050;2023-08-06T06:17:56;36.00;99.90
17859;DHT22;35426;30.698;104.050;2023-08-06T06:20:33;35.80;99.90
17859;DHT22;35426;30.698;104.050;2023-08-06T06:23:07;35.60;99.90
17859;DHT22;35426;30.698;104.050;2023-08-06T06:25:46;35.70;99.90
17859;DHT22;35426;30.698;104.050;2023-08-06T06:28:20;36.10;99.90
17859;DHT22;35426;30.698;104.050;2023-08-06T06:31:01;36.10;99.90
17859;DHT22;35426;30.698;104.050;2023-08-06T06:33:36;35.40;99.90
17859;DHT22;35426;30.698;104.050;2023-08-06T06:36:13;34.90;99.90
17859;DHT22;35426;30.698;104.050;2023-08-06T06:38:48;33.50;99.90
17859;DHT22;35426;30.698;104.050;2023-08-06T06:41:21;32.50;99.90
17859;DHT22;35426;30.698;104.050;2023-08-06T06:43:54;31.70;99.90
17859;DHT22;35426;30.698;104.050;2023-08-06T06:46:29;30.90;99.90
17859;DHT22;35426;30.698;104.050;2023-08-06T06:49:05;30.70;99.90
17859;DHT22;35426;30.698;104.050;2023-08-06T06:51:38;30.50;99.90
17859;DHT22;35426;30.698;104.050;2023-08-06T06:54:11;30.40;99.90
17859;DHT22;35426;30.698;104.050;2023-08-06T06:56:44;28.40;99.90
17859;DHT22;35426;30.698;104.050;2023-08-06T06:59:17;27.00;99.90
17859;DHT22;35426;30.698;104.050;2023-08-06T07:01:50;25.80;99.90
17859;DHT22;35426;30.698;104.050;2023-08-06T07:04:26;25.90;99.90
17859;DHT22;35426;30.698;104.050;2023-08-06T07:06:59;25.60;99.90
17859;DHT22;35426;30.698;104.050;2023-08-06T07:09:32;25.60;99.90
17859;DHT22;35426;30.698;104.050;2023-08-06T07:12:10;25.10;99.90
17859;DHT22;35426;30.698;104.050;2023-08-06T07:14:43;25.20;99.90
17859;DHT22;35426;30.698;104.050;2023-08-06T07:17:26;25.40;99.90
17859;DHT22;35426;30.698;104.050;2023-08-06T07:20:04;25.50;99.90
17859;DHT22;35426;30.698;104.050;2023-08-06T07:22:37;25.60;99.90
17859;DHT22;35426;30.698;104.050;2023-08-06T07:25:12;25.30;99.90
17859;DHT22;35426;30.698;104.050;2023-08-06T07:27:47;25.50;99.90
17859;DHT22;35426;30.698;104.050;2023-08-06T07:30:22;25.50;99.90
17859;DHT22;35426;30.698;104.050;2023-08-06T07:32:55;25.70;99.90
17859;DHT22;35426;30.698;104.050;2023-08-06T07:35:32;25.80;99.90
17859;DHT22;35426;30.698;104.050;2023-08-06T07:38:06;25.90;99.90
17859;DHT22;35426;30.698;104.050;2023-08-06T07:40:40;26.00;99.90
17859;DHT22;35426;30.698;104.050;2023-08-06T07:43:14;26.10;99.90
17859;DHT22;35426;30.698;104.050;2023-08-06T07:45:47;26.30;99.90
17859;DHT22;35426;30.698;104.050;2023-08-06T07:48:22;26.30;99.90
17859;DHT22;35426;30.698;104.050;2023-08-06T07:50:57;26.20;99.90
17859;DHT22;35426;30.698;104.050;2023-08-06T07:53:30;26.40;99.90
17859;DHT22;35426;30.698;104.050;2023-08-06T07:56:04;26.30;99.90
17859;DHT22;35426;30.698;104.050;2023-08-06T07:58:38;26.20;99.90
17859;DHT22;35426;30.698;104.050;2023-08-06T08:01:12;26.30;99.90
17859;DHT22;35426;30.698;104.050;2023-08-06T08:03:46;26.30;99.90
17859;DHT22;35426;30.698;104.050;2023-08-06T08:06:22;26.20;99.90
17859;DHT22;35426;30.698;104.050;2023-08-06T08:08:56;26.20;99.90
17859;DHT22;35426;30.698;104.050;2023-08-06T08:11:29;26.10;99.90
17859;DHT22;35426;30.698;104.050;2023-08-06T08:14:02;26.20;99.90
17859;DHT22;35426;30.698;104.050;2023-08-06T08:16:35;26.10;99.90
17859;DHT22;35426;30.698;104.050;2023-08-06T08:19:08;26.20;99.90
17859;DHT22;35426;30.698;104.050;2023-08-06T08:21:46;26.40;99.90
17859;DHT22;35426;30.698;104.050;2023-08-06T08:24:20;26.60;99.90
17859;DHT22;35426;30.698;104.050;2023-08-06T08:26:55;26.70;99.90
17859;DHT22;35426;30.698;104.050;2023-08-06T08:29:33;26.70;99.90
17859;DHT22;35426;30.698;104.050;2023-08-06T08:32:10;26.60;99.90
17859;DHT22;35426;30.698;104.050;2023-08-06T08:34:43;26.60;99.90
17859;DHT22;35426;30.698;104.050;2023-08-06T08:37:19;26.70;99.90
17859;DHT22;35426;30.698;104.050;2023-08-06T08:39:53;26.80;99.90
17859;DHT22;35426;30.698;104.050;2023-08-06T08:42:27;26.80;99.90
17859;DHT22;35426;30.698;104.050;2023-08-06T08:45:01;26.50;99.90
17859;DHT22;35426;30.698;104.050;2023-08-06T08:47:35;26.40;99.90
17859;DHT22;35426;30.698;104.050;2023-08-06T08:50:09;26.40;99.90
17859;DHT22;35426;30.698;104.050;2023-08-06T08:52:46;26.60;99.90
17859;DHT22;35426;30.698;104.050;2023-08-06T08:55:21;26.60;99.90
17859;DHT22;35426;30.698;104.050;2023-08-06T08:57:54;26.60;99.90
17859;DHT22;35426;30.698;104.050;2023-08-06T09:00:29;26.80;99.90
17859;DHT22;35426;30.698;104.050;2023-08-06T09:03:07;26.80;99.90
17859;DHT22;35426;30.698;104.050;2023-08-06T09:05:44;26.60;99.90
17859;DHT22;35426;30.698;104.050;2023-08-06T09:08:24;26.60;99.90
17859;DHT22;35426;30.698;104.050;2023-08-06T09:11:02;26.60;99.90
17859;DHT22;35426;30.698;104.050;2023-08-06T09:13:37;26.80;99.90
17859;DHT22;35426;30.698;104.050;2023-08-06T09:16:10;26.80;99.90
17859;DHT22;35426;30.698;104.050;2023-08-06T09:18:44;26.80;99.90
17859;DHT22;35426;30.698;104.050;2023-08-06T09:21:17;26.90;99.90
17859;DHT22;35426;30.698;104.050;2023-08-06T09:23:51;26.70;99.90
17859;DHT22;35426;30.698;104.050;2023-08-06T09:26:34;26.70;99.90
17859;DHT22;35426;30.698;104.050;2023-08-06T09:29:08;26.90;99.90
17859;DHT22;35426;30.698;104.050;2023-08-06T09:31:42;27.20;99.90
17859;DHT22;35426;30.698;104.050;2023-08-06T09:34:16;27.10;99.90
17859;DHT22;35426;30.698;104.050;2023-08-06T09:36:50;27.10;99.90
17859;DHT22;35426;30.698;104.050;2023-08-06T09:39:28;27.10;99.90
17859;DHT22;35426;30.698;104.050;2023-08-06T09:42:02;27.10;99.90
17859;DHT22;35426;30.698;104.050;2023-08-06T09:44:36;27.10;99.90
17859;DHT22;35426;30.698;104.050;2023-08-06T09:47:13;27.40;99.90
17859;DHT22;35426;30.698;104.050;2023-08-06T09:49:51;27.60;99.90
17859;DHT22;35426;30.698;104.050;2023-08-06T09:52:25;27.50;99.90
17859;DHT22;35426;30.698;104.050;2023-08-06T09:55:02;27.60;99.90
17859;DHT22;35426;30.698;104.050;2023-08-06T09:57:36;27.50;99.90
17859;DHT22;35426;30.698;104.050;2023-08-06T10:00:10;27.70;99.90
17859;DHT22;35426;30.698;104.050;2023-08-06T10:02:47;27.60;99.90
17859;DHT22;35426;30.698;104.050;2023-08-06T10:05:22;27.70;99.90
17859;DHT22;35426;30.698;104.050;2023-08-06T10:07:57;27.70;99.90
17859;DHT22;35426;30.698;104.050;2023-08-06T10:10:33;27.80;99.90
17859;DHT22;35426;30.698;104.050;2023-08-06T10:13:08;28.10;99.90
17859;DHT22;35426;30.698;104.050;2023-08-06T10:15:42;28.30;99.90
17859;DHT22;35426;30.698;104.050;2023-08-06T10:18:18;28.20;99.90
17859;DHT22;35426;30.698;104.050;2023-08-06T10:20:53;28.20;99.90
17859;DHT22;35426;30.698;104.050;2023-08-06T10:23:35;28.30;99.90
17859;DHT22;35426;30.698;104.050;2023-08-06T10:26:10;28.30;99.90
17859;DHT22;35426;30.698;104.050;2023-08-06T10:28:46;28.30;99.90
17859;DHT22;35426;30.698;104.050;2023-08-06T10:31:21;28.40;99.90
17859;DHT22;35426;30.698;104.050;2023-08-06T10:34:17;28.50;99.90
17859;DHT22;35426;30.698;104.050;2023-08-06T10:36:52;28.40;99.90
17859;DHT22;35426;30.698;104.050;2023-08-06T10:39:27;28.30;99.90
17859;DHT22;35426;30.698;104.050;2023-08-06T10:42:04;28.30;99.90
17859;DHT22;35426;30.698;104.050;2023-08-06T10:44:38;28.40;99.90
17859;DHT22;35426;30.698;104.050;2023-08-06T10:47:38;28.30;99.90
17859;DHT22;35426;30.698;104.050;2023-08-06T10:50:14;28.40;99.90
17859;DHT22;35426;30.698;104.050;2023-08-06T10:52:49;28.50;99.90
17859;DHT22;35426;30.698;104.050;2023-08-06T10:55:27;28.30;99.90
17859;DHT22;35426;30.698;104.050;2023-08-06T10:58:05;28.30;99.90
17859;DHT22;35426;30.698;104.050;2023-08-06T11:00:39;28.40;99.90
17859;DHT22;35426;30.698;104.050;2023-08-06T11:03:14;28.40;99.90
17859;DHT22;35426;30.698;104.050;2023-08-06T11:05:53;28.30;99.90
17859;DHT22;35426;30.698;104.050;2023-08-06T11:08:27;28.30;99.90
17859;DHT22;35426;30.698;104.050;2023-08-06T11:11:09;28.10;99.90
17859;DHT22;35426;30.698;104.050;2023-08-06T11:13:46;28.10;99.90
17859;DHT22;35426;30.698;104.050;2023-08-06T11:16:23;28.10;99.90
17859;DHT22;35426;30.698;104.050;2023-08-06T11:18:57;28.20;99.90
17859;DHT22;35426;30.698;104.050;2023-08-06T11:21:36;28.00;99.90
17859;DHT22;35426;30.698;104.050;2023-08-06T11:24:11;27.70;99.90
17859;DHT22;35426;30.698;104.050;2023-08-06T11:26:44;27.50;99.90
17859;DHT22;35426;30.698;104.050;2023-08-06T11:29:20;27.70;99.90
17859;DHT22;35426;30.698;104.050;2023-08-06T11:32:04;27.80;99.90
17859;DHT22;35426;30.698;104.050;2023-08-06T11:34:38;27.50;99.90
17859;DHT22;35426;30.698;104.050;2023-08-06T11:37:12;27.40;99.90
17859;DHT22;35426;30.698;104.050;2023-08-06T11:39:47;27.60;99.90
17859;DHT22;35426;30.698;104.050;2023-08-06T11:42:25;27.70;99.90
17859;DHT22;35426;30.698;104.050;2023-08-06T11:45:03;27.60;99.90
17859;DHT22;35426;30.698;104.050;2023-08-06T11:47:39;27.70;99.90
17859;DHT22;35426;30.698;104.050;2023-08-06T11:50:23;27.70;99.90
17859;DHT22;35426;30.698;104.050;2023-08-06T11:52:59;27.80;99.90
17859;DHT22;35426;30.698;104.050;2023-08-06T11:55:35;27.90;99.90
17859;DHT22;35426;30.698;104.050;2023-08-06T11:58:09;27.80;99.90
17859;DHT22;35426;30.698;104.050;2023-08-06T12:00:49;27.70;99.90
17859;DHT22;35426;30.698;104.050;2023-08-06T12:03:22;27.70;99.90
17859;DHT22;35426;30.698;104.050;2023-08-06T12:05:57;27.60;99.90
17859;DHT22;35426;30.698;104.050;2023-08-06T12:08:32;27.60;99.90
17859;DHT22;35426;30.698;104.050;2023-08-06T12:11:05;27.70;99.90
17859;DHT22;35426;30.698;104.050;2023-08-06T12:13:40;27.80;99.90
17859;DHT22;35426;30.698;104.050;2023-08-06T12:16:16;27.70;99.90
17859;DHT22;35426;30.698;104.050;2023-08-06T12:18:52;27.50;99.90
17859;DHT22;35426;30.698;104.050;2023-08-06T12:21:26;27.40;99.90
17859;DHT22;35426;30.698;104.050;2023-08-06T12:24:00;27.40;99.90
17859;DHT22;35426;30.698;104.050;2023-08-06T12:26:34;27.20;99.90
17859;DHT22;35426;30.698;104.050;2023-08-06T12:29:08;27.30;99.90
17859;DHT22;35426;30.698;104.050;2023-08-06T12:31:42;27.40;99.90
17859;DHT22;35426;30.698;104.050;2023-08-06T12:34:15;27.30;99.90
17859;DHT22;35426;30.698;104.050;2023-08-06T12:36:52;27.40;99.90
17859;DHT22;35426;30.698;104.050;2023-08-06T12:39:25;27.40;99.90
17859;DHT22;35426;30.698;104.050;2023-08-06T12:41:59;27.40;99.90
17859;DHT22;35426;30.698;104.050;2023-08-06T12:44:38;27.50;99.90
17859;DHT22;35426;30.698;104.050;2023-08-06T12:47:13;27.50;99.90
17859;DHT22;35426;30.698;104.050;2023-08-06T12:49:47;27.50;99.90
17859;DHT22;35426;30.698;104.050;2023-08-06T12:52:20;27.50;99.90
17859;DHT22;35426;30.698;104.050;2023-08-06T12:54:53;27.60;99.90
17859;DHT22;35426;30.698;104.050;2023-08-06T12:57:26;27.70;99.90
17859;DHT22;35426;30.698;104.050;2023-08-06T13:00:19;27.60;99.90
17859;DHT22;35426;30.698;104.050;2023-08-06T13:02:55;27.50;99.90
17859;DHT22;35426;30.698;104.050;2023-08-06T13:05:29;27.60;99.90
17859;DHT22;35426;30.698;104.050;2023-08-06T13:08:03;27.60;99.90
17859;DHT22;35426;30.698;104.050;2023-08-06T13:10:37;27.70;99.90
17859;DHT22;35426;30.698;104.050;2023-08-06T13:13:12;27.80;99.90
17859;DHT22;35426;30.698;104.050;2023-08-06T13:15:45;27.80;99.90
17859;DHT22;35426;30.698;104.050;2023-08-06T13:18:21;27.80;99.90
17859;DHT22;35426;30.698;104.050;2023-08-06T13:20:55;27.80;99.90
17859;DHT22;35426;30.698;104.050;2023-08-06T13:23:29;27.90;99.90
17859;DHT22;35426;30.698;104.050;2023-08-06T13:26:04;28.00;99.90
17859;DHT22;35426;30.698;104.050;2023-08-06T13:28:38;28.00;99.90
17859;DHT22;35426;30.698;104.050;2023-08-06T13:31:12;28.00;99.90
17859;DHT22;35426;30.698;104.050;2023-08-06T13:33:47;28.00;99.90
17859;DHT22;35426;30.698;104.050;2023-08-06T13:36:23;28.10;99.90
17859;DHT22;35426;30.698;104.050;2023-08-06T13:38:56;28.10;99.90
17859;DHT22;35426;30.698;104.050;2023-08-06T13:41:29;28.10;99.90
17859;DHT22;35426;30.698;104.050;2023-08-06T13:44:01;28.10;99.90
17859;DHT22;35426;30.698;104.050;2023-08-06T13:46:35;27.80;99.90
17859;DHT22;35426;30.698;104.050;2023-08-06T13:49:11;27.70;99.90
17859;DHT22;35426;30.698;104.050;2023-08-06T13:51:49;27.80;99.90
17859;DHT22;35426;30.698;104.050;2023-08-06T13:54:24;27.70;99.90
17859;DHT22;35426;30.698;104.050;2023-08-06T13:56:57;27.70;99.90
17859;DHT22;35426;30.698;104.050;2023-08-06T13:59:34;27.70;99.90
17859;DHT22;35426;30.698;104.050;2023-08-06T14:02:08;27.80;99.90
17859;DHT22;35426;30.698;104.050;2023-08-06T14:04:44;27.90;99.90
17859;DHT22;35426;30.698;104.050;2023-08-06T14:07:17;27.90;99.90
17859;DHT22;35426;30.698;104.050;2023-08-06T14:09:54;28.00;99.90
17859;DHT22;35426;30.698;104.050;2023-08-06T14:12:32;28.00;99.90
17859;DHT22;35426;30.698;104.050;2023-08-06T14:15:07;28.20;99.90
17859;DHT22;35426;30.698;104.050;2023-08-06T14:17:40;28.00;99.90
17859;DHT22;35426;30.698;104.050;2023-08-06T14:20:15;28.20;99.90
17859;DHT22;35426;30.698;104.050;2023-08-06T14:22:50;28.30;99.90
17859;DHT22;35426;30.698;104.050;2023-08-06T14:25:23;28.20;99.90
17859;DHT22;35426;30.698;104.050;2023-08-06T14:27:59;28.10;99.90
17859;DHT22;35426;30.698;104.050;2023-08-06T14:30:33;28.10;99.90
17859;DHT22;35426;30.698;104.050;2023-08-06T14:33:06;28.20;99.90
17859;DHT22;35426;30.698;104.050;2023-08-06T14:35:57;28.30;99.90
17859;DHT22;35426;30.698;104.050;2023-08-06T14:38:31;28.10;99.90
17859;DHT22;35426;30.698;104.050;2023-08-06T14:41:18;28.10;99.90
17859;DHT22;35426;30.698;104.050;2023-08-06T14:43:51;28.00;99.90
17859;DHT22;35426;30.698;104.050;2023-08-06T14:46:26;27.90;99.90
17859;DHT22;35426;30.698;104.050;2023-08-06T14:49:01;28.10;99.90
17859;DHT22;35426;30.698;104.050;2023-08-06T14:51:38;28.10;99.90
17859;DHT22;35426;30.698;104.050;2023-08-06T14:54:12;28.00;99.90
17859;DHT22;35426;30.698;104.050;2023-08-06T14:56:45;28.00;99.90
17859;DHT22;35426;30.698;104.050;2023-08-06T14:59:20;27.90;99.90
17859;DHT22;35426;30.698;104.050;2023-08-06T15:01:52;27.90;99.90
17859;DHT22;35426;30.698;104.050;2023-08-06T15:04:26;27.90;99.90
17859;DHT22;35426;30.698;104.050;2023-08-06T15:07:03;28.00;99.90
17859;DHT22;35426;30.698;104.050;2023-08-06T15:09:37;27.80;99.90
17859;DHT22;35426;30.698;104.050;2023-08-06T15:12:29;27.70;99.90
17859;DHT22;35426;30.698;104.050;2023-08-06T15:15:08;27.80;99.90
17859;DHT22;35426;30.698;104.050;2023-08-06T15:17:42;27.80;99.90
17859;DHT22;35426;30.698;104.050;2023-08-06T15:20:16;27.70;99.90
17859;DHT22;35426;30.698;104.050;2023-08-06T15:22:51;27.70;99.90
17859;DHT22;35426;30.698;104.050;2023-08-06T15:25:25;27.70;99.90
17859;DHT22;35426;30.698;104.050;2023-08-06T15:28:00;27.70;99.90
17859;DHT22;35426;30.698;104.050;2023-08-06T15:30:34;27.60;99.90
17859;DHT22;35426;30.698;104.050;2023-08-06T15:33:09;27.50;99.90
17859;DHT22;35426;30.698;104.050;2023-08-06T15:35:48;27.40;99.90
17859;DHT22;35426;30.698;104.050;2023-08-06T15:38:23;27.40;99.90
17859;DHT22;35426;30.698;104.050;2023-08-06T15:40:57;27.30;99.90
17859;DHT22;35426;30.698;104.050;2023-08-06T15:43:32;27.40;99.90
17859;DHT22;35426;30.698;104.050;2023-08-06T15:46:07;27.50;99.90
17859;DHT22;35426;30.698;104.050;2023-08-06T15:48:41;27.60;99.90
17859;DHT22;35426;30.698;104.050;2023-08-06T15:51:14;27.70;99.90